OMSJ/SHJ METAR and TAF weather

Enter ICAO airport designator
Station Type Date Time Source
OMSJ METAR 2019/02/23 01:00 UTC NOAA

OMSJ 230100Z 06003KT CAVOK 18/16 Q1017


Station Type Date Time Source
OMSJ Decoded METAR 2019/02/23 01:00 UTC NOAA

Sharjah International Airport, United Arab Emirates (OMSJ) 25-20N 055-31E 33M
Feb 22, 2019 - 08:00 PM EST / 2019.02.23 0100 UTC
Wind: from the ENE (060 degrees) at 3 MPH (3 KT):0
Visibility: greater than 7 mile(s):0
Temperature: 64 F (18 C)
Dew Point: 60 F (16 C)
Relative Humidity: 88%
Pressure (altimeter): 30.03 in. Hg (1017 hPa)
ob: OMSJ 230100Z 06003KT CAVOK 18/16 Q1017
cycle: 1

Station Type Date Time Source
OMSJ TAF 2019/02/22 18:00 UTC NOAA

TAF OMSJ 221656Z 2218/2400 06005KT CAVOK PROB30
TEMPO 2218/2302 VRB15KT 4000 SHRA FEW050TCU
BECMG 2310/2312 34010KT
BECMG 2316/2318 06005KT


Example: see airport list